Time;durP1;ratioP1;P1;durP2;ratioP2;P2;SDS_P1;SDS_P2;PMS_P1;PMS_P2;Temp;Humidity;BMP_temperature;BMP_pressure;BME280_temperature;BME280_humidity;BME280_pressure;Samples;Min_cycle;Max_cycle;Signal;HPM_P1;HPM_P2
2021/05/12 00:01:00;;;;;;;9.67;8.67;;;13.40;99.90;;;;;;5090676;28;20499;-76
2021/05/12 00:03:46;;;;;;;9.10;7.37;;;13.50;99.90;;;;;;5088250;28;20445;-76
2021/05/12 00:06:31;;;;;;;11.97;7.07;;;13.50;99.90;;;;;;5083840;28;20448;-76
2021/05/12 00:09:16;;;;;;;13.97;7.20;;;13.40;99.90;;;;;;5073131;28;20454;-75
2021/05/12 00:12:01;;;;;;;6.57;5.50;;;13.40;99.90;;;;;;5088627;28;20858;-76
2021/05/12 00:14:46;;;;;;;11.17;5.90;;;13.40;99.90;;;;;;5086391;28;20464;-76
2021/05/12 00:17:31;;;;;;;11.13;5.57;;;13.30;99.90;;;;;;5083843;28;20516;-76
2021/05/12 00:20:21;;;;;;;4.97;4.13;;;13.20;99.90;;;;;;5090614;28;20819;-76
2021/05/12 00:23:09;;;;;;;4.80;3.93;;;13.20;99.90;;;;;;5090733;28;20440;-76
2021/05/12 00:25:54;;;;;;;3.80;3.40;;;13.20;99.90;;;;;;5085341;28;20970;-75
2021/05/12 00:28:39;;;;;;;7.40;3.17;;;13.00;99.90;;;;;;5076871;28;20446;-76
2021/05/12 00:31:24;;;;;;;5.43;3.50;;;13.00;99.90;;;;;;5088090;28;20420;-76
2021/05/12 00:34:09;;;;;;;4.50;3.30;;;13.00;99.90;;;;;;5086082;28;20955;-75
2021/05/12 00:36:55;;;;;;;5.10;2.70;;;13.00;99.90;;;;;;5088432;28;20536;-77
2021/05/12 00:39:40;;;;;;;4.17;2.70;;;13.10;99.90;;;;;;5082695;28;20420;-76
2021/05/12 00:42:28;;;;;;;6.37;2.63;;;13.10;99.90;;;;;;5082148;28;20412;-78
2021/05/12 00:45:17;;;;;;;6.33;2.40;;;13.20;99.90;;;;;;5087197;28;20450;-76
2021/05/12 00:48:02;;;;;;;9.90;2.70;;;13.10;99.90;;;;;;5081361;28;20421;-76
2021/05/12 00:50:47;;;;;;;4.33;2.77;;;13.10;99.90;;;;;;5085121;28;20430;-76
2021/05/12 00:53:34;;;;;;;4.23;2.43;;;13.20;99.90;;;;;;5084017;28;20463;-76
2021/05/12 00:56:19;;;;;;;3.37;2.20;;;13.30;99.90;;;;;;5089522;28;20452;-76
2021/05/12 00:59:05;;;;;;;5.93;2.60;;;13.40;99.90;;;;;;5088985;28;20432;-76
2021/05/12 01:01:50;;;;;;;4.73;2.67;;;13.40;99.90;;;;;;5090208;28;20473;-76
2021/05/12 01:04:35;;;;;;;17.20;2.70;;;13.50;99.90;;;;;;5075678;28;20462;-77
2021/05/12 01:07:20;;;;;;;3.00;1.87;;;13.50;99.90;;;;;;5085493;28;20423;-76
2021/05/12 01:10:08;;;;;;;4.63;2.27;;;13.50;99.90;;;;;;5071560;28;20518;-75
2021/05/12 01:12:53;;;;;;;4.20;2.20;;;13.50;99.90;;;;;;5078457;28;20546;-75
2021/05/12 01:15:39;;;;;;;9.23;2.80;;;13.50;99.90;;;;;;5083366;28;20874;-74
2021/05/12 01:18:24;;;;;;;4.43;2.10;;;13.50;99.90;;;;;;5090612;28;20827;-74
2021/05/12 01:21:10;;;;;;;4.23;2.33;;;13.50;99.90;;;;;;5086904;28;21229;-75
2021/05/12 01:23:55;;;;;;;9.00;1.90;;;13.50;99.90;;;;;;5088983;28;20826;-74
2021/05/12 01:26:40;;;;;;;7.23;3.00;;;13.60;99.90;;;;;;5089983;28;20417;-75
2021/05/12 01:29:25;;;;;;;4.73;2.57;;;13.60;99.90;;;;;;5084955;28;21068;-75
2021/05/12 01:32:11;;;;;;;3.80;2.47;;;13.60;99.90;;;;;;5089502;28;20925;-75
2021/05/12 01:35:04;;;;;;;8.80;2.60;;;13.60;99.90;;;;;;5084181;28;20458;-74
2021/05/12 01:37:50;;;;;;;6.20;2.43;;;13.60;99.90;;;;;;5087000;28;20473;-74
2021/05/12 01:40:35;;;;;;;4.83;3.00;;;13.50;99.90;;;;;;5085352;28;20420;-75
2021/05/12 01:43:20;;;;;;;5.50;3.30;;;13.40;99.90;;;;;;5093071;28;20416;-74
2021/05/12 01:46:05;;;;;;;4.30;3.10;;;13.50;99.90;;;;;;5093711;28;20428;-75
2021/05/12 01:48:51;;;;;;;4.87;2.83;;;13.50;99.90;;;;;;5089185;28;20935;-74
2021/05/12 01:51:37;;;;;;;5.00;3.00;;;13.50;99.90;;;;;;5087578;28;20446;-75
2021/05/12 01:54:23;;;;;;;4.10;3.30;;;13.60;99.90;;;;;;5088141;28;20525;-74
2021/05/12 01:57:08;;;;;;;5.10;2.73;;;13.50;99.90;;;;;;5080535;28;20562;-74
2021/05/12 01:59:53;;;;;;;7.17;3.80;;;13.50;99.90;;;;;;5092405;28;20534;-75
2021/05/12 02:02:39;;;;;;;6.57;3.93;;;13.40;99.90;;;;;;5087936;28;20496;-75
2021/05/12 02:05:26;;;;;;;6.70;5.00;;;13.50;99.90;;;;;;5089479;28;20420;-75
2021/05/12 02:08:13;;;;;;;6.37;5.07;;;13.30;99.90;;;;;;5091642;28;20761;-75
2021/05/12 02:11:02;;;;;;;6.70;5.13;;;13.10;99.90;;;;;;5088506;28;20427;-75
2021/05/12 02:13:47;;;;;;;5.80;5.00;;;13.00;99.90;;;;;;5084925;28;20453;-75
2021/05/12 02:16:32;;;;;;;10.00;6.07;;;13.00;99.90;;;;;;5086853;28;20496;-74
2021/05/12 02:19:17;;;;;;;9.27;6.43;;;13.00;99.90;;;;;;5088259;28;20453;-75
2021/05/12 02:22:02;;;;;;;6.53;5.33;;;13.00;99.90;;;;;;5088851;28;20462;-74
2021/05/12 02:24:47;;;;;;;8.30;5.97;;;13.10;99.90;;;;;;5089053;28;20396;-75
2021/05/12 02:27:33;;;;;;;9.00;6.00;;;13.20;99.90;;;;;;5081267;28;20416;-74
2021/05/12 02:30:19;;;;;;;7.50;5.90;;;13.10;99.90;;;;;;5083484;28;20967;-74
2021/05/12 02:33:05;;;;;;;8.47;7.57;;;13.10;99.90;;;;;;5092385;28;20428;-75
2021/05/12 02:35:50;;;;;;;11.20;8.30;;;13.20;99.90;;;;;;5096820;28;20767;-75
2021/05/12 02:38:35;;;;;;;14.63;8.63;;;13.30;99.90;;;;;;5075317;28;20482;-75
2021/05/12 02:41:20;;;;;;;10.50;9.20;;;13.30;99.90;;;;;;5090620;28;20434;-74
2021/05/12 02:44:07;;;;;;;9.93;8.90;;;13.30;99.90;;;;;;5081555;28;20959;-75
2021/05/12 02:46:52;;;;;;;15.23;10.57;;;13.40;99.90;;;;;;5082723;28;20417;-74
2021/05/12 02:49:38;;;;;;;11.20;10.10;;;13.30;99.90;;;;;;5082959;28;20441;-75
2021/05/12 02:52:24;;;;;;;9.73;8.20;;;13.30;99.90;;;;;;5088336;28;21005;-74
2021/05/12 02:55:10;;;;;;;10.90;8.67;;;13.30;99.90;;;;;;5086655;28;20432;-74
2021/05/12 02:57:56;;;;;;;14.60;8.50;;;13.30;99.90;;;;;;5092742;28;20485;-74
2021/05/12 03:00:43;;;;;;;9.53;8.00;;;13.20;99.90;;;;;;5091975;28;20927;-75
2021/05/12 03:03:28;;;;;;;9.83;7.20;;;13.20;99.90;;;;;;5087059;28;20517;-74
2021/05/12 03:06:13;;;;;;;13.77;6.90;;;13.00;99.90;;;;;;5088481;28;20458;-74
2021/05/12 03:08:58;;;;;;;9.90;7.60;;;13.00;99.90;;;;;;5080382;28;20412;-74
2021/05/12 03:11:43;;;;;;;10.57;6.70;;;13.10;99.90;;;;;;5085512;28;20962;-74
2021/05/12 03:14:29;;;;;;;10.03;6.50;;;13.00;99.90;;;;;;5092558;28;20415;-74
2021/05/12 03:17:15;;;;;;;9.97;7.33;;;12.90;99.90;;;;;;5085115;28;20478;-74
2021/05/12 03:20:00;;;;;;;11.00;6.90;;;12.90;99.90;;;;;;5092722;28;21009;-74
2021/05/12 03:22:46;;;;;;;7.50;6.17;;;12.80;99.90;;;;;;5085230;28;20923;-74
2021/05/12 03:25:31;;;;;;;9.10;6.73;;;12.80;99.90;;;;;;5086042;28;20420;-74
2021/05/12 03:28:16;;;;;;;13.60;7.33;;;12.90;99.90;;;;;;5091531;28;20437;-74
2021/05/12 03:31:01;;;;;;;8.07;5.77;;;13.00;99.90;;;;;;5090606;28;20491;-74
2021/05/12 03:33:47;;;;;;;9.70;5.67;;;13.00;99.90;;;;;;5088743;28;20874;-74
2021/05/12 03:36:32;;;;;;;8.73;5.63;;;12.90;99.90;;;;;;5090464;28;20819;-74
2021/05/12 03:39:17;;;;;;;11.50;5.30;;;12.90;99.90;;;;;;5090863;28;20448;-74
2021/05/12 03:42:02;;;;;;;16.33;5.90;;;13.00;99.90;;;;;;5087483;28;20523;-74
2021/05/12 03:44:47;;;;;;;9.27;5.83;;;13.00;99.90;;;;;;5091387;28;20396;-74
2021/05/12 03:47:32;;;;;;;10.10;5.23;;;12.90;99.90;;;;;;5084702;28;20515;-74
2021/05/12 03:50:20;;;;;;;8.87;6.00;;;13.00;99.90;;;;;;5092420;28;20548;-74
2021/05/12 03:53:05;;;;;;;6.93;5.03;;;13.00;99.90;;;;;;5083726;28;20464;-74
2021/05/12 03:55:51;;;;;;;12.23;6.37;;;13.10;99.90;;;;;;5089235;28;20489;-74
2021/05/12 03:58:35;;;;;;;9.93;5.30;;;13.10;99.90;;;;;;5085643;28;20600;-74
2021/05/12 04:01:21;;;;;;;7.80;4.57;;;13.10;99.90;;;;;;5090170;28;20496;-74
2021/05/12 04:04:08;;;;;;;12.17;5.20;;;13.10;99.90;;;;;;5091993;28;20421;-74
2021/05/12 04:06:54;;;;;;;9.30;5.27;;;13.00;99.90;;;;;;5083663;28;20528;-75
2021/05/12 04:09:38;;;;;;;6.03;4.43;;;13.10;99.90;;;;;;5091998;28;20503;-74
2021/05/12 04:12:24;;;;;;;10.03;5.33;;;13.00;99.90;;;;;;5084713;28;20499;-74
2021/05/12 04:15:10;;;;;;;6.83;5.57;;;12.80;99.90;;;;;;5086868;28;20523;-74
2021/05/12 04:17:55;;;;;;;11.20;6.30;;;12.60;99.90;;;;;;5091237;28;20493;-74
2021/05/12 04:20:40;;;;;;;6.90;5.83;;;12.40;99.90;;;;;;5086518;28;20446;-74
2021/05/12 04:23:26;;;;;;;9.00;5.97;;;12.40;99.90;;;;;;5075010;28;20484;-74
2021/05/12 04:26:11;;;;;;;10.03;6.87;;;12.30;99.90;;;;;;5086366;28;21033;-74
2021/05/12 04:28:56;;;;;;;9.07;6.03;;;12.40;99.90;;;;;;5091312;28;20464;-74
2021/05/12 04:31:41;;;;;;;9.17;6.10;;;12.50;99.90;;;;;;5088331;28;20512;-74
2021/05/12 04:34:26;;;;;;;12.63;6.93;;;12.50;99.90;;;;;;5083538;28;20437;-75
2021/05/12 04:37:11;;;;;;;12.87;6.93;;;12.40;99.90;;;;;;5090167;28;20469;-74
2021/05/12 04:39:57;;;;;;;10.00;6.70;;;12.40;99.90;;;;;;5082391;28;20617;-74
2021/05/12 04:42:42;;;;;;;10.70;6.90;;;12.40;99.90;;;;;;5077389;28;20500;-75
2021/05/12 04:45:27;;;;;;;10.53;7.83;;;12.50;99.90;;;;;;5080191;28;20441;-74
2021/05/12 04:48:12;;;;;;;11.93;7.50;;;12.50;99.90;;;;;;5089671;28;20412;-74
2021/05/12 04:50:58;;;;;;;14.40;7.67;;;12.50;99.90;;;;;;5087642;28;20433;-74
2021/05/12 04:53:43;;;;;;;8.17;7.20;;;12.60;99.90;;;;;;5080936;28;21000;-74
2021/05/12 04:56:29;;;;;;;10.80;7.40;;;12.70;99.90;;;;;;5077553;28;20562;-74
2021/05/12 04:59:14;;;;;;;15.37;7.60;;;12.80;99.90;;;;;;5083878;28;20496;-74
2021/05/12 05:02:00;;;;;;;9.87;8.20;;;12.80;99.90;;;;;;5088486;28;20472;-75
2021/05/12 05:04:45;;;;;;;10.43;8.27;;;12.80;99.90;;;;;;5085668;28;20446;-74
2021/05/12 05:07:30;;;;;;;12.77;8.50;;;12.70;99.90;;;;;;5082295;28;20859;-74
2021/05/12 05:10:15;;;;;;;16.93;8.97;;;12.70;99.90;;;;;;5084302;28;20474;-74
2021/05/12 05:13:01;;;;;;;11.53;8.80;;;12.70;99.90;;;;;;5086007;28;20808;-74
2021/05/12 05:15:46;;;;;;;15.30;9.17;;;12.80;99.90;;;;;;5094168;28;20450;-74
2021/05/12 05:18:32;;;;;;;10.97;9.07;;;12.70;99.90;;;;;;5085968;28;20469;-74
2021/05/12 05:21:17;;;;;;;9.20;8.07;;;12.80;99.90;;;;;;5094305;28;20833;-74
2021/05/12 05:24:02;;;;;;;10.43;7.73;;;12.80;99.90;;;;;;5088117;28;20461;-74
2021/05/12 05:26:47;;;;;;;11.53;9.43;;;12.80;99.90;;;;;;5080058;28;20416;-75
2021/05/12 05:29:33;;;;;;;14.27;8.40;;;12.80;99.90;;;;;;5081969;28;20443;-74
2021/05/12 05:32:18;;;;;;;14.23;8.53;;;12.80;99.90;;;;;;5093965;28;20461;-74
2021/05/12 05:35:05;;;;;;;9.70;7.93;;;12.60;99.90;;;;;;5094085;28;20441;-74
2021/05/12 05:37:51;;;;;;;12.30;9.50;;;12.60;99.90;;;;;;5093186;28;20449;-74
2021/05/12 05:40:36;;;;;;;15.57;9.70;;;12.60;99.90;;;;;;5091654;28;20415;-74
2021/05/12 05:43:21;;;;;;;12.10;8.80;;;12.50;99.90;;;;;;5091556;28;20501;-74
2021/05/12 05:46:07;;;;;;;10.50;8.80;;;12.50;99.90;;;;;;5094646;28;20393;-74
2021/05/12 05:48:52;;;;;;;13.57;9.20;;;12.60;99.90;;;;;;5093015;28;20785;-74
2021/05/12 05:51:37;;;;;;;10.60;9.00;;;12.60;99.90;;;;;;5087760;28;20464;-74
2021/05/12 05:54:23;;;;;;;15.97;9.87;;;12.60;99.90;;;;;;5093774;28;20399;-74
2021/05/12 05:57:14;;;;;;;10.77;9.40;;;12.80;99.90;;;;;;5090485;28;20487;-74
2021/05/12 05:59:59;;;;;;;11.50;9.27;;;12.90;99.90;;;;;;5084624;28;20532;-75
2021/05/12 06:02:45;;;;;;;10.10;9.10;;;13.00;99.90;;;;;;5092255;28;20525;-74
2021/05/12 06:05:31;;;;;;;16.93;10.17;;;13.00;99.90;;;;;;5093307;28;20468;-74
2021/05/12 06:08:16;;;;;;;12.03;9.60;;;12.90;99.90;;;;;;5086382;28;21330;-74
2021/05/12 06:11:01;;;;;;;10.17;9.10;;;12.90;99.90;;;;;;5092600;28;20503;-74
2021/05/12 06:13:47;;;;;;;13.63;9.10;;;13.00;99.90;;;;;;5093111;28;20389;-74
2021/05/12 06:16:32;;;;;;;19.07;8.70;;;13.00;99.90;;;;;;5088166;28;20492;-74
2021/05/12 06:19:18;;;;;;;16.83;9.63;;;13.00;99.90;;;;;;5091113;28;20464;-74
2021/05/12 06:22:03;;;;;;;15.10;9.87;;;12.90;99.90;;;;;;5093993;28;20420;-75
2021/05/12 06:24:48;;;;;;;14.57;10.10;;;12.80;99.90;;;;;;5090566;28;20440;-74
2021/05/12 06:27:33;;;;;;;22.07;10.67;;;12.80;99.90;;;;;;5081555;28;20782;-74
2021/05/12 06:30:19;;;;;;;12.57;11.27;;;12.90;99.90;;;;;;5088275;28;20804;-75
2021/05/12 06:33:07;;;;;;;14.30;10.23;;;13.00;99.90;;;;;;5089596;28;20806;-74
2021/05/12 06:35:54;;;;;;;12.50;9.80;;;12.90;99.90;;;;;;5087697;28;20523;-75
2021/05/12 06:38:39;;;;;;;16.80;10.20;;;13.00;99.90;;;;;;5089177;28;20515;-74
2021/05/12 06:41:24;;;;;;;13.07;10.37;;;13.00;99.90;;;;;;5092758;28;20400;-75
2021/05/12 06:44:09;;;;;;;18.40;11.80;;;13.10;99.90;;;;;;5082488;28;20471;-74
2021/05/12 06:46:55;;;;;;;15.00;10.40;;;12.80;99.90;;;;;;5089385;28;20393;-75
2021/05/12 06:49:40;;;;;;;12.20;10.50;;;12.80;99.90;;;;;;5091774;28;20457;-75
2021/05/12 06:52:26;;;;;;;16.07;11.07;;;12.70;99.90;;;;;;5081715;28;20440;-74
2021/05/12 06:55:12;;;;;;;17.93;12.70;;;12.70;99.90;;;;;;5091529;28;20454;-75
2021/05/12 06:57:57;;;;;;;14.80;11.27;;;12.70;99.90;;;;;;5085711;28;20448;-74
2021/05/12 07:00:42;;;;;;;15.30;12.00;;;12.70;99.90;;;;;;5086391;28;20782;-74
2021/05/12 07:03:28;;;;;;;19.73;12.77;;;12.70;99.90;;;;;;5083621;28;20528;-74
2021/05/12 07:06:13;;;;;;;14.37;11.13;;;12.70;99.90;;;;;;5091578;28;20426;-75
2021/05/12 07:08:59;;;;;;;14.90;11.90;;;12.80;99.90;;;;;;5081888;28;20812;-74
2021/05/12 07:11:44;;;;;;;15.40;12.47;;;12.70;99.90;;;;;;5091261;28;20436;-76
2021/05/12 07:14:29;;;;;;;14.00;11.97;;;12.60;99.90;;;;;;5086391;28;20474;-76
2021/05/12 07:17:14;;;;;;;15.50;12.23;;;12.70;99.90;;;;;;5091198;28;20487;-77
2021/05/12 07:19:59;;;;;;;17.57;13.80;;;12.80;99.90;;;;;;5091129;28;20423;-76
2021/05/12 07:22:44;;;;;;;16.30;12.33;;;12.90;99.90;;;;;;5080101;28;20470;-76
2021/05/12 07:25:31;;;;;;;17.80;11.80;;;12.90;99.90;;;;;;5085012;28;20400;-76
2021/05/12 07:28:16;;;;;;;14.37;12.67;;;12.80;99.90;;;;;;5089086;28;21054;-76
2021/05/12 07:31:02;;;;;;;18.23;13.87;;;12.80;99.90;;;;;;5072760;28;20416;-75
2021/05/12 07:33:47;;;;;;;15.87;12.23;;;13.00;99.90;;;;;;5080549;28;20453;-76
2021/05/12 07:36:32;;;;;;;16.73;13.40;;;12.90;99.90;;;;;;5075338;28;20804;-76
2021/05/12 07:39:18;;;;;;;16.50;12.40;;;13.00;99.90;;;;;;5080461;28;20559;-76
2021/05/12 07:42:07;;;;;;;16.50;11.90;;;13.10;99.90;;;;;;5080098;28;20491;-76
2021/05/12 07:44:52;;;;;;;19.70;12.73;;;13.20;99.90;;;;;;5084282;28;20461;-75
2021/05/12 07:47:37;;;;;;;14.80;12.00;;;13.30;99.90;;;;;;5076161;28;20441;-73
2021/05/12 07:50:23;;;;;;;17.87;12.10;;;13.40;99.90;;;;;;5083650;28;20832;-72
2021/05/12 07:53:08;;;;;;;17.20;12.20;;;13.40;99.90;;;;;;5083824;28;20454;-72
2021/05/12 07:55:53;;;;;;;14.80;11.00;;;13.60;99.90;;;;;;5083010;28;20466;-72
2021/05/12 07:58:39;;;;;;;19.83;12.17;;;13.70;99.90;;;;;;5078835;28;20453;-73
2021/05/12 08:01:28;;;;;;;13.30;11.13;;;13.70;99.90;;;;;;5071570;28;20961;-72
2021/05/12 08:04:14;;;;;;;11.80;10.60;;;13.70;99.90;;;;;;5084794;28;20431;-72
2021/05/12 08:06:59;;;;;;;15.37;12.47;;;13.70;99.90;;;;;;5081251;28;20424;-72
2021/05/12 08:09:44;;;;;;;14.60;11.43;;;13.70;99.90;;;;;;5080882;28;20453;-75
2021/05/12 08:12:29;;;;;;;14.40;12.10;;;13.60;99.90;;;;;;5081926;28;20443;-75
2021/05/12 08:15:15;;;;;;;18.50;12.43;;;13.60;99.90;;;;;;5081160;28;21009;-76
2021/05/12 08:18:00;;;;;;;18.93;11.40;;;13.50;99.90;;;;;;5088442;28;20465;-76
2021/05/12 08:20:45;;;;;;;16.70;12.07;;;13.40;99.90;;;;;;5087937;28;20446;-77
2021/05/12 08:23:30;;;;;;;17.97;12.50;;;13.50;99.90;;;;;;5091351;28;20468;-77
2021/05/12 08:26:16;;;;;;;14.63;10.97;;;13.50;99.90;;;;;;5091494;28;20400;-76
2021/05/12 08:29:04;;;;;;;13.67;10.70;;;13.60;99.90;;;;;;5091147;28;20422;-76
2021/05/12 08:31:50;;;;;;;11.50;10.20;;;13.60;99.90;;;;;;5091748;28;20480;-76
2021/05/12 08:34:35;;;;;;;12.77;9.43;;;13.80;99.90;;;;;;5094842;28;20531;-76
2021/05/12 08:37:20;;;;;;;13.00;11.60;;;13.80;99.90;;;;;;5084206;28;20473;-77
2021/05/12 08:40:06;;;;;;;11.60;10.00;;;13.90;99.90;;;;;;5071412;28;20426;-76
2021/05/12 08:42:53;;;;;;;15.63;10.33;;;14.00;99.90;;;;;;5071474;28;20500;-76
2021/05/12 08:45:39;;;;;;;18.10;11.47;;;13.70;99.90;;;;;;5071350;28;20420;-76
2021/05/12 08:48:25;;;;;;;15.67;9.53;;;13.70;99.90;;;;;;5090930;28;20396;-76
2021/05/12 08:51:11;;;;;;;13.57;10.20;;;13.70;99.90;;;;;;5091574;28;20506;-75
2021/05/12 08:53:56;;;;;;;15.17;9.80;;;13.70;99.90;;;;;;5091482;28;20466;-76
2021/05/12 08:56:42;;;;;;;13.53;10.97;;;13.60;99.90;;;;;;5073232;28;20446;-76
2021/05/12 08:59:27;;;;;;;14.93;11.97;;;13.60;99.90;;;;;;5070969;28;20429;-76
2021/05/12 09:02:12;;;;;;;13.03;9.83;;;13.70;99.90;;;;;;5071019;28;20805;-76
2021/05/12 09:04:58;;;;;;;17.43;10.30;;;13.90;99.90;;;;;;5085530;28;20486;-76
2021/05/12 09:07:43;;;;;;;11.37;8.73;;;13.90;99.90;;;;;;5081370;28;20417;-76
2021/05/12 09:10:28;;;;;;;14.13;9.00;;;14.00;99.90;;;;;;5070901;28;20427;-76
2021/05/12 09:13:28;;;;;;;12.00;9.83;;;14.20;99.90;;;;;;5070764;28;20524;-77
2021/05/12 09:16:22;;;;;;;12.37;8.73;;;14.30;99.90;;;;;;5071080;28;20481;-76
2021/05/12 09:19:09;;;;;;;10.70;8.70;;;14.40;99.90;;;;;;5070333;28;20427;-76
2021/05/12 09:21:57;;;;;;;17.07;9.80;;;14.50;99.90;;;;;;5071248;28;20516;-76
2021/05/12 09:24:42;;;;;;;11.30;9.33;;;14.50;99.90;;;;;;5070711;28;20389;-76
2021/05/12 09:27:27;;;;;;;14.33;8.13;;;14.40;99.90;;;;;;5071192;28;20442;-74
2021/05/12 09:30:19;;;;;;;10.13;7.97;;;14.30;99.90;;;;;;5070663;28;20866;-77
2021/05/12 09:33:05;;;;;;;12.80;8.63;;;14.20;99.90;;;;;;5070831;28;20401;-76
2021/05/12 09:35:50;;;;;;;10.73;8.33;;;14.10;99.90;;;;;;5092475;28;20425;-76
2021/05/12 09:38:37;;;;;;;13.33;9.27;;;14.00;99.90;;;;;;5070552;28;20462;-76
2021/05/12 09:41:32;;;;;;;15.13;8.33;;;14.10;99.90;;;;;;5084309;28;20804;-76
2021/05/12 09:44:28;;;;;;;12.20;8.67;;;14.20;99.90;;;;;;5089225;28;20421;-76
2021/05/12 09:47:29;;;;;;;10.17;7.73;;;14.30;99.90;;;;;;5090646;28;20446;-77
2021/05/12 09:50:19;;;;;;;13.20;8.10;;;14.40;99.90;;;;;;5091246;28;20404;-76
2021/05/12 09:53:08;;;;;;;12.17;7.80;;;14.40;99.90;;;;;;5081303;28;20514;-76
2021/05/12 09:55:54;;;;;;;12.83;8.47;;;14.50;99.90;;;;;;5070270;28;20546;-76
2021/05/12 09:58:55;;;;;;;11.47;9.30;;;14.60;99.90;;;;;;5070985;28;20979;-77
2021/05/12 10:01:41;;;;;;;11.80;8.40;;;14.70;99.90;;;;;;5074061;28;20417;-76
2021/05/12 10:04:37;;;;;;;15.40;8.73;;;14.90;99.90;;;;;;5082023;28;20429;-77
2021/05/12 10:07:23;;;;;;;10.43;8.37;;;15.00;99.90;;;;;;5085136;28;20439;-76
2021/05/12 10:10:09;;;;;;;9.63;8.13;;;14.80;99.90;;;;;;5083951;28;20839;-77
2021/05/12 10:12:55;;;;;;;13.87;9.67;;;14.80;99.90;;;;;;5073951;28;20449;-77
2021/05/12 10:15:40;;;;;;;12.90;8.50;;;15.00;99.90;;;;;;5073961;28;20442;-76
2021/05/12 10:18:25;;;;;;;11.23;9.10;;;15.10;99.90;;;;;;5073531;28;20512;-77
2021/05/12 10:21:11;;;;;;;17.03;8.80;;;15.20;99.90;;;;;;5073999;28;20422;-77
2021/05/12 10:23:56;;;;;;;18.63;8.67;;;15.30;99.90;;;;;;5073455;28;20508;-77
2021/05/12 10:26:43;;;;;;;12.53;8.30;;;15.20;99.90;;;;;;5085035;28;20437;-76
2021/05/12 10:29:30;;;;;;;9.13;6.87;;;15.30;99.90;;;;;;5093456;28;20430;-77
2021/05/12 10:32:22;;;;;;;10.97;7.90;;;15.30;99.90;;;;;;5093795;28;20526;-77
2021/05/12 10:35:09;;;;;;;11.73;7.97;;;15.40;99.90;;;;;;5096902;28;21171;-76
2021/05/12 10:37:54;;;;;;;10.40;7.80;;;15.40;99.90;;;;;;5091214;28;20520;-74
2021/05/12 10:40:40;;;;;;;9.20;7.43;;;15.20;99.90;;;;;;5085853;28;20420;-74
2021/05/12 10:43:37;;;;;;;9.83;7.67;;;15.10;99.90;;;;;;5085032;28;20420;-75
2021/05/12 10:46:29;;;;;;;13.43;7.10;;;15.00;99.90;;;;;;5091976;28;20446;-75
2021/05/12 10:49:22;;;;;;;9.23;6.63;;;15.00;99.90;;;;;;5093329;28;20459;-75
2021/05/12 10:52:09;;;;;;;11.03;7.90;;;15.00;99.90;;;;;;5084523;28;20452;-74
2021/05/12 10:54:54;;;;;;;11.50;6.97;;;15.10;99.90;;;;;;5087254;28;20483;-74
2021/05/12 10:57:48;;;;;;;11.00;7.30;;;15.20;99.90;;;;;;5075578;28;20508;-74
2021/05/12 11:00:54;;;;;;;9.23;6.50;;;15.20;99.90;;;;;;5085674;28;20469;-73
2021/05/12 11:04:12;;;;;;;16.70;10.40;;;15.40;99.90;;;;;;5083538;28;20428;-76
2021/05/12 11:07:08;;;;;;;11.27;7.10;;;15.50;99.90;;;;;;5083742;28;20505;-77
2021/05/12 11:09:55;;;;;;;8.73;7.00;;;15.50;99.90;;;;;;5087531;28;20801;-77
2021/05/12 11:12:40;;;;;;;11.20;7.57;;;15.50;99.90;;;;;;5083477;28;20827;-77
2021/05/12 11:15:45;;;;;;;13.47;6.83;;;15.40;99.90;;;;;;5078322;28;20524;-76
2021/05/12 11:18:50;;;;;;;8.97;7.60;;;15.60;99.90;;;;;;5081368;28;20455;-76
2021/05/12 11:21:37;;;;;;;15.53;7.83;;;15.80;99.90;;;;;;5084106;28;20952;-76
2021/05/12 11:24:23;;;;;;;12.87;7.93;;;15.70;99.90;;;;;;5079198;28;20437;-76
2021/05/12 11:27:20;;;;;;;10.53;7.27;;;15.70;99.90;;;;;;5078409;28;20509;-77
2021/05/12 11:33:20;;;;;;;10.47;6.83;;;16.20;99.90;;;;;;5092245;28;20998;-74
2021/05/12 11:36:09;;;;;;;13.43;8.10;;;16.10;99.90;;;;;;5082450;28;20483;-76
2021/05/12 11:38:55;;;;;;;8.70;7.10;;;16.10;99.90;;;;;;5088289;28;20486;-73
2021/05/12 11:41:41;;;;;;;11.23;7.30;;;16.30;99.90;;;;;;5084393;28;20457;-77
2021/05/12 11:44:27;;;;;;;11.10;7.20;;;16.40;99.90;;;;;;5082993;28;20416;-76
2021/05/12 11:47:12;;;;;;;15.17;7.17;;;16.50;99.90;;;;;;5085338;28;20457;-77
2021/05/12 11:49:57;;;;;;;15.10;8.50;;;16.50;99.90;;;;;;5092618;28;20500;-77
2021/05/12 11:52:47;;;;;;;10.27;7.33;;;16.30;99.90;;;;;;5087158;28;20416;-76
2021/05/12 11:55:34;;;;;;;10.70;7.33;;;16.20;99.90;;;;;;5090568;28;21068;-77
2021/05/12 11:58:24;;;;;;;11.17;7.13;;;16.10;99.90;;;;;;5088926;28;21052;-77
2021/05/12 12:01:11;;;;;;;9.30;6.63;;;16.10;99.90;;;;;;5089983;28;20396;-76
2021/05/12 12:04:15;;;;;;;7.70;6.27;;;16.20;99.90;;;;;;5084930;28;20565;-76
2021/05/12 12:07:01;;;;;;;7.30;6.20;;;16.30;99.90;;;;;;5085294;28;20504;-77
2021/05/12 12:09:46;;;;;;;10.70;6.63;;;16.40;99.90;;;;;;5090609;28;20567;-76
2021/05/12 12:12:33;;;;;;;9.60;7.23;;;16.40;99.90;;;;;;5083146;28;20448;-77
2021/05/12 12:15:19;;;;;;;7.90;7.10;;;16.40;99.90;;;;;;5089288;28;20865;-77
2021/05/12 12:18:05;;;;;;;11.10;7.33;;;16.50;99.90;;;;;;5086044;28;20440;-76
2021/05/12 12:20:50;;;;;;;12.43;8.10;;;16.40;99.90;;;;;;5086837;28;20441;-76
2021/05/12 12:23:36;;;;;;;16.00;7.50;;;16.50;99.90;;;;;;5090917;28;20479;-77
2021/05/12 12:26:23;;;;;;;10.77;6.90;;;16.60;99.90;;;;;;5089114;28;20416;-77
2021/05/12 12:29:09;;;;;;;14.23;6.40;;;16.90;99.90;;;;;;5090854;28;20445;-77
2021/05/12 12:31:57;;;;;;;10.10;6.50;;;17.20;99.90;;;;;;5086120;28;20469;-76
2021/05/12 12:34:44;;;;;;;8.27;6.60;;;17.20;99.90;;;;;;5090101;28;20419;-76
2021/05/12 12:37:31;;;;;;;14.60;6.63;;;17.10;99.90;;;;;;5086892;28;20583;-76
2021/05/12 12:40:17;;;;;;;14.17;7.07;;;16.90;99.90;;;;;;5091598;28;20480;-76
2021/05/12 12:43:02;;;;;;;7.63;5.37;;;16.80;99.90;;;;;;5085217;28;20498;-76
2021/05/12 12:45:47;;;;;;;9.37;5.60;;;16.90;99.90;;;;;;5071016;28;20370;-77
2021/05/12 12:48:33;;;;;;;13.87;5.73;;;17.00;99.90;;;;;;5083633;28;20420;-77
2021/05/12 12:51:33;;;;;;;8.23;5.90;;;17.00;99.90;;;;;;5079197;28;20441;-77
2021/05/12 12:54:38;;;;;;;11.63;6.20;;;17.00;99.90;;;;;;5077388;28;20418;-77
2021/05/12 12:57:24;;;;;;;7.57;4.93;;;17.10;99.90;;;;;;5087078;28;20879;-77
2021/05/12 13:00:19;;;;;;;9.17;4.87;;;17.30;99.90;;;;;;5090963;28;20794;-77
2021/05/12 13:03:06;;;;;;;7.13;5.30;;;17.30;99.90;;;;;;5086756;28;20511;-77
2021/05/12 13:05:53;;;;;;;8.33;5.73;;;17.20;99.90;;;;;;5087769;28;20458;-77
2021/05/12 13:08:39;;;;;;;7.07;4.63;;;17.10;99.90;;;;;;5087377;28;20814;-77
2021/05/12 13:11:24;;;;;;;6.40;4.30;;;17.30;99.90;;;;;;5089724;28;20470;-77
2021/05/12 13:14:09;;;;;;;10.03;5.13;;;17.30;99.90;;;;;;5087557;28;20867;-77
2021/05/12 13:17:04;;;;;;;8.87;4.13;;;17.30;99.90;;;;;;5088997;28;20477;-77
2021/05/12 13:19:54;;;;;;;12.07;4.87;;;17.40;99.90;;;;;;5084460;28;21168;-76
2021/05/12 13:22:40;;;;;;;8.40;5.30;;;17.40;99.90;;;;;;5083758;28;20508;-76
2021/05/12 13:25:25;;;;;;;7.60;5.17;;;17.50;99.90;;;;;;5088863;28;20527;-76
2021/05/12 13:28:10;;;;;;;10.33;4.70;;;17.50;99.90;;;;;;5086691;28;20451;-76
2021/05/12 13:30:57;;;;;;;5.60;4.00;;;17.70;99.90;;;;;;5083004;28;20435;-76
2021/05/12 13:33:47;;;;;;;10.00;5.10;;;17.90;99.90;;;;;;5080785;28;20446;-76
2021/05/12 13:36:33;;;;;;;7.67;4.60;;;18.20;99.90;;;;;;5089628;28;20488;-77
2021/05/12 13:39:19;;;;;;;9.30;5.13;;;18.50;96.60;;;;;;5091271;28;20505;-77
2021/05/12 13:42:06;;;;;;;5.47;4.07;;;18.70;94.70;;;;;;5088343;28;20520;-76
2021/05/12 13:44:51;;;;;;;11.97;4.80;;;19.00;91.80;;;;;;5088879;28;20392;-77
2021/05/12 13:47:36;;;;;;;16.90;5.10;;;19.20;91.10;;;;;;5086539;28;20440;-76
2021/05/12 13:50:26;;;;;;;8.03;5.30;;;19.30;84.40;;;;;;5087121;28;20412;-76
2021/05/12 13:53:15;;;;;;;11.40;5.00;;;19.20;76.40;;;;;;5075157;28;20437;-76
2021/05/12 13:56:07;;;;;;;8.87;5.03;;;19.30;76.40;;;;;;5087861;28;20549;-77
2021/05/12 14:02:00;;;;;;;7.77;4.70;;;18.50;72.30;;;;;;5074184;28;20466;-76
2021/05/12 14:04:46;;;;;;;9.90;4.70;;;18.10;77.70;;;;;;5081512;28;20930;-74
2021/05/12 14:07:37;;;;;;;9.90;4.47;;;17.90;78.60;;;;;;5079462;28;20403;-73
2021/05/12 14:10:22;;;;;;;10.20;4.30;;;17.90;88.40;;;;;;5077866;28;20473;-73
2021/05/12 14:13:15;;;;;;;6.30;3.90;;;17.90;82.40;;;;;;5083027;28;20493;-76
2021/05/12 14:19:03;;;;;;;6.43;3.50;;;17.90;87.80;;;;;;5084291;28;20434;-74
2021/05/12 14:21:48;;;;;;;6.67;3.40;;;18.00;86.20;;;;;;5078486;28;20515;-74
2021/05/12 14:24:34;;;;;;;8.80;3.77;;;18.00;84.70;;;;;;5086879;28;20448;-74
2021/05/12 14:27:21;;;;;;;10.03;3.57;;;17.90;85.10;;;;;;5077791;28;20443;-74